Decoded Metar for DAOI (ECH-CHELIFF in ALGERIA) (IATA:QAS) | Meteo·Mobile Aviation Weather
aviador You're here:

DAOI Decoded Metar

ECH-CHELIFF in ALGERIA
Report Time2018-11-17 09:00:00
UTC Time2018-11-17 09:13:25
Flight Rules vfr VFR
Wind060° at 04 kt
W.Decomp.*RWY 08: 3.8 kt HW 1.4 kt LCW
W.Rank060° ranks 1
Current wind is below 060° avg. (7.6)
Visibility8000 m
Phenomena:N/A
Clouds:Few 026 Hf
Scattered 233 Hf
Expected CloudBase > 1,200 ft AGL from Temp-Dew spread
CeilingNone
Temp16°C (ISA +2)
Dew Point13°C (83% RH)
AAT15.5°C
QNH1014 hPa
Density Alt866 ft
Elevation469 ft
Report Wrong Elevation
Raw Report
METAR DAOI 170900Z 06004KT 8000 FEW026 SCT233 16/13 Q1014=

Extra information for DAOI:More info

Metar Taf Metar & Taf Last 4 Metars F.Rules Stats Wind Profile Meteogram Temp Stats Airport Information Weather charts Add Link Nearby VenuesMetar ALERT Operation Metar Decoded Social comments